Time;durP1;ratioP1;P1;durP2;ratioP2;P2;SDS_P1;SDS_P2;PMS_P1;PMS_P2;Temp;Humidity;BMP_temperature;BMP_pressure;BME280_temperature;BME280_humidity;BME280_pressure;Samples;Min_cycle;Max_cycle;Signal;HPM_P1;HPM_P2
2022/01/16 00:04:44;;;;;;;46.47;17.47;;;1.90;99.90;;;;;;5014509;28;20163;-82
2022/01/16 00:07:10;;;;;;;47.67;16.37;;;1.80;99.90;;;;;;5013522;28;20065;-82
2022/01/16 00:09:35;;;;;;;47.10;16.40;;;1.80;99.90;;;;;;4998081;28;20442;-82
2022/01/16 00:12:05;;;;;;;46.67;17.23;;;1.80;99.90;;;;;;4996916;28;20050;-82
2022/01/16 00:14:32;;;;;;;50.43;17.07;;;1.80;99.90;;;;;;4997609;28;20022;-81
2022/01/16 00:16:59;;;;;;;45.07;16.43;;;1.70;99.90;;;;;;4996911;28;20299;-82
2022/01/16 00:19:25;;;;;;;51.50;16.03;;;1.70;99.90;;;;;;5015084;28;20534;-81
2022/01/16 00:21:51;;;;;;;49.67;16.53;;;1.70;99.90;;;;;;4997098;28;20026;-82
2022/01/16 00:24:17;;;;;;;43.37;16.53;;;1.60;99.90;;;;;;4997214;28;20091;-82
2022/01/16 00:26:43;;;;;;;51.60;16.13;;;1.60;99.90;;;;;;5014335;28;20034;-82
2022/01/16 00:29:11;;;;;;;44.97;15.87;;;1.60;99.90;;;;;;4997153;28;20022;-82
2022/01/16 00:31:38;;;;;;;52.83;16.47;;;1.60;99.90;;;;;;4997301;28;20105;-82
2022/01/16 00:34:05;;;;;;;42.80;17.03;;;1.70;99.90;;;;;;4997001;28;20048;-82
2022/01/16 00:36:31;;;;;;;43.47;15.63;;;1.60;99.90;;;;;;4997293;28;20087;-82
2022/01/16 00:38:57;;;;;;;41.70;15.10;;;1.50;99.90;;;;;;4996803;28;20129;-82
2022/01/16 00:41:24;;;;;;;46.37;15.17;;;1.50;99.90;;;;;;5013286;28;20030;-82
2022/01/16 00:43:52;;;;;;;51.30;16.27;;;1.50;99.90;;;;;;4996706;28;20120;-81
2022/01/16 00:46:18;;;;;;;45.40;16.27;;;1.50;99.90;;;;;;5014355;28;20034;-82
2022/01/16 00:48:44;;;;;;;45.87;15.63;;;1.50;99.90;;;;;;4996715;28;20026;-82
2022/01/16 00:51:10;;;;;;;43.57;15.23;;;1.50;99.90;;;;;;5013450;28;20029;-81
2022/01/16 00:53:38;;;;;;;37.57;14.43;;;1.50;99.90;;;;;;4996973;28;20030;-82
2022/01/16 00:56:05;;;;;;;37.77;13.90;;;1.50;99.90;;;;;;5014024;28;20025;-82
2022/01/16 00:58:30;;;;;;;43.50;16.00;;;1.40;99.90;;;;;;4996840;28;20026;-82
2022/01/16 01:00:56;;;;;;;42.10;14.93;;;1.40;99.90;;;;;;4996346;28;20104;-82
2022/01/16 01:03:22;;;;;;;44.57;15.40;;;1.40;99.90;;;;;;4996765;28;20060;-82
2022/01/16 01:05:47;;;;;;;37.43;14.33;;;1.40;99.90;;;;;;5014020;28;20034;-82
2022/01/16 01:08:13;;;;;;;43.80;14.60;;;1.40;99.90;;;;;;4996918;28;20049;-81
2022/01/16 01:10:41;;;;;;;40.90;14.00;;;1.40;99.90;;;;;;5013995;28;20478;-82
2022/01/16 01:13:22;;;;;;;42.40;14.97;;;1.40;99.90;;;;;;4996572;28;20033;-82
2022/01/16 01:15:51;;;;;;;41.60;13.37;;;1.40;99.90;;;;;;4996596;28;20034;-82
2022/01/16 01:18:20;;;;;;;36.33;13.90;;;1.30;99.90;;;;;;5014054;28;20030;-82
2022/01/16 01:20:49;;;;;;;45.87;15.30;;;1.30;99.90;;;;;;4996113;28;20033;-82
2022/01/16 01:23:15;;;;;;;39.10;12.43;;;1.20;99.90;;;;;;4996704;28;20030;-82
2022/01/16 01:25:42;;;;;;;37.70;13.60;;;1.20;99.90;;;;;;4996436;28;20022;-81
2022/01/16 01:28:08;;;;;;;44.93;13.97;;;1.30;99.90;;;;;;4996876;28;20422;-82
2022/01/16 01:30:35;;;;;;;35.80;12.57;;;1.30;99.90;;;;;;4997060;28;20030;-81
2022/01/16 01:33:01;;;;;;;40.03;13.27;;;1.30;99.90;;;;;;5012603;28;20026;-81
2022/01/16 01:35:28;;;;;;;38.40;13.37;;;1.30;99.90;;;;;;4996835;28;20026;-81
2022/01/16 01:37:54;;;;;;;39.40;13.43;;;1.20;99.90;;;;;;4996025;28;20022;-82
2022/01/16 01:40:24;;;;;;;40.03;12.83;;;1.20;99.90;;;;;;4996670;28;20030;-82
2022/01/16 01:51:11;;;;;;;42.83;13.37;;;1.10;99.90;;;;;;5013995;28;20040;-81
2022/01/16 01:53:38;;;;;;;44.13;13.37;;;1.10;99.90;;;;;;4996519;28;20034;-82
2022/01/16 01:56:05;;;;;;;37.57;13.43;;;1.00;99.90;;;;;;4995866;28;20388;-82
2022/01/16 01:58:31;;;;;;;45.33;13.33;;;1.00;99.90;;;;;;4996393;28;20034;-81
2022/01/16 02:00:57;;;;;;;43.17;13.67;;;1.00;99.90;;;;;;4995996;28;20026;-82
2022/01/16 02:03:30;;;;;;;47.33;15.23;;;1.00;99.90;;;;;;4996478;28;20034;-82
2022/01/16 02:05:56;;;;;;;37.47;13.37;;;1.00;99.90;;;;;;4995953;28;20125;-82
2022/01/16 02:08:22;;;;;;;40.77;13.17;;;0.90;99.90;;;;;;4996420;28;20113;-81
2022/01/16 02:10:48;;;;;;;41.83;13.70;;;0.90;99.90;;;;;;5013048;28;20026;-82
2022/01/16 02:13:24;;;;;;;44.73;13.73;;;1.00;99.90;;;;;;5012405;28;20037;-82
2022/01/16 02:30:02;;;;;;;36.30;12.43;;;0.60;99.90;;;;;;5014221;28;20041;-81
2022/01/16 02:34:58;;;;;;;42.10;12.03;;;0.50;99.90;;;;;;4985764;28;20098;-81
2022/01/16 02:37:24;;;;;;;36.10;12.57;;;0.40;99.90;;;;;;4999416;28;20061;-81
2022/01/16 02:39:52;;;;;;;39.10;12.37;;;0.40;99.90;;;;;;4999114;28;20066;-82
2022/01/16 02:42:19;;;;;;;36.60;12.77;;;0.50;99.90;;;;;;5016978;28;20116;-81
2022/01/16 02:44:50;;;;;;;38.30;12.87;;;0.50;99.90;;;;;;4999316;28;20026;-82
2022/01/16 02:47:19;;;;;;;37.78;12.88;;;0.40;99.90;;;;;;5016570;28;20026;-81
2022/01/16 02:49:48;;;;;;;33.80;11.83;;;0.30;99.90;;;;;;4999245;28;20030;-82
2022/01/16 02:52:17;;;;;;;35.77;12.73;;;0.30;99.90;;;;;;5016469;28;20067;-81
2022/01/16 02:54:44;;;;;;;38.87;12.57;;;0.40;99.90;;;;;;4999276;28;20037;-82
2022/01/16 02:57:14;;;;;;;41.73;12.37;;;0.30;99.90;;;;;;4998467;28;20046;-81
2022/01/16 02:59:44;;;;;;;37.23;12.57;;;0.30;99.90;;;;;;4999012;28;20029;-81
2022/01/16 03:02:09;;;;;;;35.83;11.70;;;0.30;99.90;;;;;;4998563;28;20037;-81
2022/01/16 03:04:35;;;;;;;37.23;13.17;;;0.30;99.90;;;;;;4999034;28;20104;-81
2022/01/16 03:07:03;;;;;;;39.20;13.47;;;0.30;99.90;;;;;;4998400;28;20030;-81
2022/01/16 03:09:44;;;;;;;38.93;12.60;;;0.10;99.90;;;;;;4999112;28;20025;-81
2022/01/16 03:12:10;;;;;;;38.97;12.90;;;0.10;99.90;;;;;;4994579;28;20522;-81
2022/01/16 03:14:36;;;;;;;42.40;13.50;;;0.10;99.90;;;;;;4995462;28;20034;-81
2022/01/16 03:17:02;;;;;;;35.50;12.73;;;0.00;99.90;;;;;;4995018;28;20429;-82
2022/01/16 03:22:12;;;;;;;37.43;12.70;;;0.00;99.90;;;;;;4995820;28;20085;-81
2022/01/16 03:24:40;;;;;;;36.17;13.03;;;-0.10;99.90;;;;;;4996271;28;20038;-81
2022/01/16 03:27:17;;;;;;;42.80;13.20;;;-0.10;99.90;;;;;;5010979;28;20035;-81
2022/01/16 03:29:46;;;;;;;42.93;13.17;;;0.00;99.90;;;;;;4995256;28;20022;-81
2022/01/16 03:32:14;;;;;;;40.20;11.97;;;0.00;99.90;;;;;;4994724;28;20026;-81
2022/01/16 03:34:40;;;;;;;38.60;13.47;;;0.00;99.90;;;;;;4995353;28;20542;-81
2022/01/16 03:37:07;;;;;;;39.37;13.20;;;0.00;99.90;;;;;;4995646;28;20127;-82
2022/01/16 03:39:32;;;;;;;37.87;12.30;;;0.00;99.90;;;;;;4996054;28;20034;-81
2022/01/16 03:42:00;;;;;;;37.30;12.77;;;0.10;99.90;;;;;;4993354;28;20084;-82
2022/01/16 03:44:27;;;;;;;44.70;13.50;;;0.10;99.90;;;;;;4995089;28;20053;-81
2022/01/16 03:46:52;;;;;;;47.70;14.00;;;0.10;99.90;;;;;;4994475;28;20045;-82
2022/01/16 03:49:21;;;;;;;39.17;13.10;;;0.10;99.90;;;;;;4994922;28;20026;-81
2022/01/16 03:51:48;;;;;;;40.57;13.73;;;0.10;99.90;;;;;;4994736;28;20026;-81
2022/01/16 03:54:16;;;;;;;40.70;13.77;;;0.10;99.90;;;;;;4994308;28;20385;-81
2022/01/16 03:56:43;;;;;;;40.80;14.07;;;0.10;99.90;;;;;;4995984;28;20061;-81
2022/01/16 03:59:09;;;;;;;38.50;13.27;;;0.00;99.90;;;;;;4994275;28;20038;-81
2022/01/16 04:01:35;;;;;;;41.97;13.57;;;0.00;99.90;;;;;;4994512;28;20391;-81
2022/01/16 04:04:02;;;;;;;46.10;14.63;;;0.10;99.90;;;;;;4995264;28;20085;-81
2022/01/16 04:06:28;;;;;;;42.57;14.20;;;0.00;99.90;;;;;;4995539;28;20038;-81
2022/01/16 04:08:55;;;;;;;47.97;14.53;;;0.00;99.90;;;;;;4995136;28;20026;-82
2022/01/16 04:11:22;;;;;;;47.07;13.93;;;0.00;99.90;;;;;;5001523;28;20054;-82
2022/01/16 04:13:51;;;;;;;49.00;14.43;;;0.00;99.90;;;;;;4997693;28;20038;-81
2022/01/16 04:16:19;;;;;;;41.57;13.90;;;-0.10;99.90;;;;;;4997028;28;20123;-81
2022/01/16 04:18:44;;;;;;;36.43;12.80;;;0.00;99.90;;;;;;4997622;28;20040;-81
2022/01/16 04:21:10;;;;;;;41.43;14.20;;;0.00;99.90;;;;;;5014874;28;20029;-82
2022/01/16 04:23:36;;;;;;;44.17;14.00;;;0.00;99.90;;;;;;5013914;28;20030;-81
2022/01/16 04:26:01;;;;;;;39.60;14.30;;;0.00;99.90;;;;;;4996915;28;20030;-82
2022/01/16 04:28:27;;;;;;;45.37;13.50;;;0.00;99.90;;;;;;4997253;28;20041;-82
2022/01/16 04:30:53;;;;;;;42.07;13.20;;;0.00;99.90;;;;;;5013696;28;20026;-81
2022/01/16 04:33:19;;;;;;;46.30;13.63;;;-0.10;99.90;;;;;;5013657;28;20022;-81
2022/01/16 04:35:46;;;;;;;43.20;13.17;;;-0.20;99.90;;;;;;4997389;28;20099;-81
2022/01/16 04:38:12;;;;;;;40.27;13.67;;;-0.10;99.90;;;;;;5013336;28;20041;-81
2022/01/16 04:40:44;;;;;;;38.83;13.83;;;-0.10;99.90;;;;;;4997072;28;20399;-81
2022/01/16 04:45:58;;;;;;;41.50;13.50;;;-0.20;99.90;;;;;;5014134;28;20069;-82
2022/01/16 04:48:24;;;;;;;45.13;14.23;;;-0.20;99.90;;;;;;5013909;28;20451;-81
2022/01/16 04:50:50;;;;;;;53.77;15.37;;;-0.30;99.90;;;;;;4996946;28;20089;-81
2022/01/16 04:53:16;;;;;;;43.90;14.13;;;-0.30;99.90;;;;;;4996342;28;20076;-81
2022/01/16 04:55:43;;;;;;;43.03;15.03;;;-0.30;99.90;;;;;;4997108;28;20037;-83
2022/01/16 04:58:08;;;;;;;42.20;15.17;;;-0.20;99.90;;;;;;5012766;28;20030;-81
2022/01/16 05:00:34;;;;;;;42.27;15.10;;;-0.20;99.90;;;;;;5013592;28;20026;-81
2022/01/16 05:03:00;;;;;;;45.07;13.93;;;-0.20;99.90;;;;;;5013503;28;20101;-81
2022/01/16 05:05:25;;;;;;;40.73;15.03;;;-0.20;99.90;;;;;;5014291;28;20130;-81
2022/01/16 05:07:51;;;;;;;52.43;13.83;;;-0.10;99.90;;;;;;4996725;28;20109;-81
2022/01/16 05:10:16;;;;;;;46.77;14.27;;;-0.10;99.90;;;;;;5013931;28;20037;-81
2022/01/16 05:12:45;;;;;;;47.93;13.73;;;-0.10;99.90;;;;;;4996844;28;20050;-82
2022/01/16 05:17:56;;;;;;;38.93;13.03;;;-0.10;99.90;;;;;;5014313;28;20100;-81
2022/01/16 05:20:21;;;;;;;40.30;13.03;;;-0.10;99.90;;;;;;4996550;28;20022;-81
2022/01/16 05:22:47;;;;;;;37.50;13.20;;;-0.10;99.90;;;;;;4996648;28;20040;-82
2022/01/16 05:25:16;;;;;;;45.20;15.27;;;-0.10;99.90;;;;;;4996126;28;20084;-82
2022/01/16 05:27:41;;;;;;;39.83;13.37;;;-0.10;99.90;;;;;;4996546;28;20446;-82
2022/01/16 05:30:08;;;;;;;40.70;12.80;;;-0.20;99.90;;;;;;4996178;28;20116;-82
2022/01/16 05:32:33;;;;;;;44.47;14.50;;;-0.20;99.90;;;;;;4996666;28;20053;-82
2022/01/16 05:34:59;;;;;;;39.70;12.77;;;-0.20;99.90;;;;;;4995874;28;20471;-83
2022/01/16 05:37:25;;;;;;;41.20;13.50;;;-0.30;99.90;;;;;;5014146;28;20025;-82
2022/01/16 05:39:50;;;;;;;42.83;13.67;;;-0.30;99.90;;;;;;5013816;28;20119;-83
2022/01/16 05:42:16;;;;;;;39.87;12.87;;;-0.30;99.90;;;;;;5012697;28;20487;-82
2022/01/16 05:44:41;;;;;;;44.83;13.83;;;-0.30;99.90;;;;;;5012942;28;20402;-82
2022/01/16 05:47:10;;;;;;;43.47;12.97;;;-0.30;99.90;;;;;;5012269;28;20472;-82
2022/01/16 05:49:36;;;;;;;35.80;12.40;;;-0.40;99.90;;;;;;5012599;28;20117;-82
2022/01/16 05:52:01;;;;;;;39.00;11.97;;;-0.40;99.90;;;;;;5013341;28;20058;-83
2022/01/16 05:54:27;;;;;;;34.80;12.17;;;-0.40;99.90;;;;;;4996330;28;20364;-82
2022/01/16 05:56:53;;;;;;;37.07;12.03;;;-0.30;99.90;;;;;;4996206;28;20034;-82
2022/01/16 05:59:18;;;;;;;38.67;12.30;;;-0.40;99.90;;;;;;5013268;28;20025;-83
2022/01/16 06:01:44;;;;;;;38.23;12.57;;;-0.40;99.90;;;;;;4996759;28;20080;-83
2022/01/16 06:04:09;;;;;;;36.73;12.67;;;-0.40;99.90;;;;;;5011930;28;20102;-83
2022/01/16 06:06:35;;;;;;;45.60;13.67;;;-0.40;99.90;;;;;;4999934;28;20062;-81
2022/01/16 06:09:01;;;;;;;37.47;12.77;;;-0.40;99.90;;;;;;4999575;28;20029;-83
2022/01/16 06:11:26;;;;;;;33.90;11.13;;;-0.50;99.90;;;;;;4999465;28;20050;-82
2022/01/16 06:13:52;;;;;;;36.60;12.53;;;-0.40;99.90;;;;;;5017125;28;20045;-82
2022/01/16 06:16:18;;;;;;;34.00;11.43;;;-0.40;99.90;;;;;;5016823;28;20387;-82
2022/01/16 06:18:43;;;;;;;39.93;12.07;;;-0.40;99.90;;;;;;5016257;28;20032;-81
2022/01/16 06:21:09;;;;;;;40.93;11.90;;;-0.50;99.90;;;;;;4999447;28;20030;-82
2022/01/16 06:23:35;;;;;;;33.90;12.20;;;-0.50;99.90;;;;;;4999828;28;20545;-83
2022/01/16 06:26:00;;;;;;;37.70;11.10;;;-0.50;99.90;;;;;;4999769;28;20030;-90
2022/01/16 06:28:31;;;;;;;40.60;12.57;;;-0.50;99.90;;;;;;4999541;28;20361;-82
2022/01/16 06:30:57;;;;;;;39.80;12.87;;;-0.50;99.90;;;;;;4999961;28;20030;-81
2022/01/16 06:33:24;;;;;;;36.23;11.80;;;-0.50;99.90;;;;;;4998848;28;20033;-82
2022/01/16 06:35:49;;;;;;;40.03;12.30;;;-0.50;99.90;;;;;;4999528;28;20022;-82
2022/01/16 06:38:15;;;;;;;34.63;11.97;;;-0.50;99.90;;;;;;5016363;28;20029;-82
2022/01/16 06:40:40;;;;;;;37.47;12.23;;;-0.50;99.90;;;;;;5016846;28;20030;-82
2022/01/16 06:43:06;;;;;;;34.47;12.03;;;-0.50;99.90;;;;;;4998991;28;20112;-82
2022/01/16 06:45:32;;;;;;;41.27;12.07;;;-0.50;99.90;;;;;;5016759;28;20034;-81
2022/01/16 06:47:57;;;;;;;37.03;11.83;;;-0.50;99.90;;;;;;4999520;28;20038;-81
2022/01/16 06:50:23;;;;;;;35.77;13.47;;;-0.40;99.90;;;;;;5016340;28;20037;-81
2022/01/16 06:52:49;;;;;;;41.93;12.73;;;-0.40;99.90;;;;;;5016889;28;20032;-81
2022/01/16 06:55:14;;;;;;;38.93;11.47;;;-0.40;99.90;;;;;;5016722;28;20502;-81
2022/01/16 06:57:40;;;;;;;37.20;12.20;;;-0.40;99.90;;;;;;4999446;28;20057;-82
2022/01/16 07:00:07;;;;;;;34.27;11.33;;;-0.40;99.90;;;;;;5015078;28;20036;-82
2022/01/16 07:02:33;;;;;;;35.33;11.97;;;-0.40;99.90;;;;;;5015552;28;20026;-81
2022/01/16 07:04:59;;;;;;;33.53;12.43;;;-0.40;99.90;;;;;;5015409;28;20053;-81
2022/01/16 07:07:24;;;;;;;32.43;11.20;;;-0.40;99.90;;;;;;4998119;28;20475;-82
2022/01/16 07:09:50;;;;;;;42.07;13.07;;;-0.40;99.90;;;;;;5016251;28;20022;-81
2022/01/16 07:12:16;;;;;;;31.17;11.43;;;-0.40;99.90;;;;;;4997765;28;20506;-80
2022/01/16 07:14:43;;;;;;;37.83;12.30;;;-0.40;99.90;;;;;;4999121;28;20387;-82
2022/01/16 07:17:09;;;;;;;38.13;13.13;;;-0.40;99.90;;;;;;5015362;28;20075;-81
2022/01/16 07:19:34;;;;;;;36.00;12.27;;;-0.40;99.90;;;;;;5015990;28;20058;-82
2022/01/16 07:22:00;;;;;;;34.77;12.27;;;-0.40;99.90;;;;;;5016054;28;20064;-82
2022/01/16 07:24:26;;;;;;;34.87;12.53;;;-0.40;99.90;;;;;;5014438;28;20030;-82
2022/01/16 07:26:51;;;;;;;34.50;12.53;;;-0.30;99.90;;;;;;5014744;28;20391;-82
2022/01/16 07:29:17;;;;;;;36.57;12.27;;;-0.30;99.90;;;;;;5014598;28;20486;-82
2022/01/16 07:31:43;;;;;;;33.93;12.07;;;-0.30;99.90;;;;;;4998449;28;20475;-81
2022/01/16 07:34:09;;;;;;;38.83;13.00;;;-0.30;99.90;;;;;;4997940;28;20037;-82
2022/01/16 07:36:35;;;;;;;42.80;13.77;;;-0.20;99.90;;;;;;5014678;28;20033;-81
2022/01/16 07:39:00;;;;;;;44.07;14.03;;;-0.20;99.90;;;;;;4998354;28;20463;-81
2022/01/16 07:41:26;;;;;;;40.67;12.50;;;-0.20;99.90;;;;;;4997769;28;20053;-81
2022/01/16 07:43:52;;;;;;;41.70;13.37;;;-0.20;99.90;;;;;;4998495;28;20088;-82
2022/01/16 07:46:18;;;;;;;44.40;13.53;;;-0.10;99.90;;;;;;5013996;28;20550;-84
2022/01/16 07:48:43;;;;;;;35.27;12.77;;;-0.10;99.90;;;;;;5014452;28;20025;-82
2022/01/16 07:51:09;;;;;;;40.47;14.17;;;-0.10;99.90;;;;;;4997700;28;20422;-82
2022/01/16 07:53:35;;;;;;;44.13;14.20;;;-0.10;99.90;;;;;;4998032;28;20026;-82
2022/01/16 07:56:01;;;;;;;40.27;14.10;;;-0.10;99.90;;;;;;5015210;28;20022;-81
2022/01/16 07:58:26;;;;;;;47.23;15.17;;;-0.10;99.90;;;;;;4997437;28;20084;-81
2022/01/16 08:00:52;;;;;;;47.13;15.50;;;0.00;99.90;;;;;;4997816;28;20030;-81
2022/01/16 08:03:17;;;;;;;49.97;16.10;;;0.00;99.90;;;;;;5013939;28;20061;-81
2022/01/16 08:05:43;;;;;;;44.50;15.47;;;0.00;99.90;;;;;;5015282;28;20460;-81
2022/01/16 08:08:09;;;;;;;53.07;16.10;;;0.00;99.90;;;;;;4997390;28;20117;-82
2022/01/16 08:10:35;;;;;;;42.83;15.40;;;0.00;99.90;;;;;;5014983;28;20054;-80
2022/01/16 08:13:01;;;;;;;51.70;15.60;;;0.00;99.90;;;;;;4997606;28;20462;-82
2022/01/16 08:15:26;;;;;;;54.37;17.03;;;0.00;99.90;;;;;;5013532;28;20587;-80
2022/01/16 08:17:52;;;;;;;44.37;14.40;;;0.00;99.90;;;;;;4997740;28;20069;-81
2022/01/16 08:20:18;;;;;;;50.77;16.10;;;0.10;99.90;;;;;;4997105;28;20034;-81
2022/01/16 08:22:45;;;;;;;52.70;16.17;;;0.10;99.90;;;;;;4997616;28;20052;-81
2022/01/16 08:25:11;;;;;;;45.47;15.50;;;0.10;99.90;;;;;;4997094;28;20026;-82
2022/01/16 08:27:37;;;;;;;45.63;16.50;;;0.10;99.90;;;;;;4997031;28;20087;-81
2022/01/16 08:30:04;;;;;;;55.53;17.50;;;0.20;99.90;;;;;;5014753;28;20108;-81
2022/01/16 08:32:30;;;;;;;50.07;17.10;;;0.20;99.90;;;;;;5014223;28;20045;-81
2022/01/16 08:34:56;;;;;;;46.03;16.50;;;0.20;99.90;;;;;;4997437;28;20036;-81
2022/01/16 08:37:22;;;;;;;48.13;15.87;;;0.30;99.90;;;;;;4996766;28;20029;-81
2022/01/16 08:39:48;;;;;;;54.10;17.47;;;0.30;99.90;;;;;;4997353;28;20030;-81
2022/01/16 08:42:14;;;;;;;55.57;16.73;;;0.30;99.90;;;;;;5013151;28;20065;-81
2022/01/16 08:44:42;;;;;;;55.13;17.97;;;0.30;99.90;;;;;;4997205;28;20149;-82
2022/01/16 08:47:08;;;;;;;64.70;18.10;;;0.40;99.90;;;;;;5014441;28;20033;-81
2022/01/16 08:49:35;;;;;;;55.07;17.97;;;0.40;99.90;;;;;;4997003;28;20034;-81
2022/01/16 08:52:01;;;;;;;55.43;18.40;;;0.40;99.90;;;;;;5014332;28;20036;-81
2022/01/16 08:54:27;;;;;;;53.27;17.93;;;0.40;99.90;;;;;;4996573;28;20600;-81
2022/01/16 08:56:53;;;;;;;52.77;16.90;;;0.40;99.90;;;;;;4997298;28;20034;-81
2022/01/16 08:59:18;;;;;;;53.37;17.10;;;0.40;99.90;;;;;;5014001;28;20026;-82
2022/01/16 09:01:44;;;;;;;46.60;17.33;;;0.40;99.90;;;;;;4996958;28;20025;-81
2022/01/16 09:04:10;;;;;;;52.30;18.03;;;0.50;99.90;;;;;;4996287;28;20399;-89
2022/01/16 09:06:35;;;;;;;54.07;18.00;;;0.50;99.90;;;;;;4996972;28;20033;-81
2022/01/16 09:09:01;;;;;;;48.00;16.03;;;0.50;99.90;;;;;;4996555;28;20076;-81
2022/01/16 09:11:27;;;;;;;55.07;18.57;;;0.50;99.90;;;;;;5009382;28;20054;-82
2022/01/16 09:13:53;;;;;;;49.77;18.43;;;0.50;99.90;;;;;;4993611;28;20472;-81
2022/01/16 09:16:20;;;;;;;51.20;18.00;;;0.50;99.90;;;;;;4992984;28;20410;-82
2022/01/16 09:18:48;;;;;;;47.67;16.30;;;0.60;99.90;;;;;;4993394;28;20065;-82
2022/01/16 09:21:18;;;;;;;46.97;17.67;;;0.60;99.90;;;;;;4993286;28;20080;-82
2022/01/16 09:23:48;;;;;;;44.07;17.30;;;0.60;99.90;;;;;;4993523;28;20054;-82
2022/01/16 09:26:15;;;;;;;47.73;17.37;;;0.70;99.90;;;;;;4993064;28;20031;-82
2022/01/16 09:28:41;;;;;;;45.73;16.67;;;0.70;99.90;;;;;;4994615;28;20026;-81
2022/01/16 09:31:07;;;;;;;48.47;17.57;;;0.70;99.90;;;;;;4993263;28;20157;-82
2022/01/16 09:33:34;;;;;;;52.50;17.57;;;0.70;99.90;;;;;;4992948;28;20026;-83
2022/01/16 09:36:01;;;;;;;50.17;17.47;;;0.80;99.90;;;;;;4993283;28;20033;-82
2022/01/16 09:38:27;;;;;;;48.10;17.70;;;0.80;99.90;;;;;;4993467;28;20026;-82
2022/01/16 09:40:54;;;;;;;50.17;17.77;;;0.80;99.90;;;;;;4998508;28;20034;-82
2022/01/16 09:43:20;;;;;;;46.30;16.93;;;0.80;99.90;;;;;;4996761;28;20049;-82
2022/01/16 09:45:46;;;;;;;54.37;17.50;;;0.90;99.90;;;;;;4998398;28;20475;-82
2022/01/16 09:48:12;;;;;;;51.80;17.20;;;0.90;99.90;;;;;;4997108;28;20053;-86
2022/01/16 09:50:38;;;;;;;47.07;16.73;;;1.00;99.90;;;;;;4997132;28;20117;-83
2022/01/16 09:53:04;;;;;;;40.90;16.50;;;1.00;99.90;;;;;;4997165;28;20056;-83
2022/01/16 09:55:30;;;;;;;44.33;17.97;;;1.10;99.90;;;;;;4996513;28;20034;-83
2022/01/16 09:57:57;;;;;;;47.87;17.60;;;1.10;99.90;;;;;;4997188;28;20026;-82
2022/01/16 10:00:24;;;;;;;47.87;17.97;;;1.10;99.90;;;;;;4997713;28;20061;-84
2022/01/16 10:02:51;;;;;;;54.93;18.30;;;1.20;99.90;;;;;;4997103;28;20027;-83
2022/01/16 10:05:31;;;;;;;52.07;18.93;;;1.20;99.90;;;;;;4997597;28;20030;-84
2022/01/16 10:08:02;;;;;;;53.30;17.70;;;1.20;99.90;;;;;;4997332;28;20047;-84
2022/01/16 10:10:31;;;;;;;52.73;19.07;;;1.20;99.90;;;;;;4996464;28;20034;-84
2022/01/16 10:13:06;;;;;;;54.23;19.00;;;1.20;99.90;;;;;;5017392;28;20120;-83
2022/01/16 10:15:33;;;;;;;54.23;18.53;;;1.30;99.90;;;;;;5016938;28;20025;-83
2022/01/16 10:18:01;;;;;;;54.13;18.60;;;1.30;99.90;;;;;;4999984;28;20065;-83
2022/01/16 10:20:28;;;;;;;54.57;19.40;;;1.30;99.90;;;;;;4999432;28;20551;-84
2022/01/16 10:23:01;;;;;;;61.13;18.17;;;1.30;99.90;;;;;;4999831;28;20026;-84
2022/01/16 10:25:44;;;;;;;54.47;19.27;;;1.30;99.90;;;;;;4999459;28;20045;-83
2022/01/16 10:28:18;;;;;;;55.07;19.23;;;1.30;99.90;;;;;;4999757;28;20133;-83
2022/01/16 10:30:46;;;;;;;49.57;19.30;;;1.30;99.90;;;;;;4999957;28;20032;-84
2022/01/16 10:33:33;;;;;;;49.70;18.73;;;1.20;99.90;;;;;;5017298;28;20026;-83
2022/01/16 10:35:59;;;;;;;48.93;17.27;;;1.20;99.90;;;;;;4999794;28;20045;-83
2022/01/16 10:38:30;;;;;;;61.20;19.63;;;1.20;99.90;;;;;;4999107;28;20022;-83
2022/01/16 10:40:58;;;;;;;52.50;18.17;;;1.20;99.90;;;;;;5016894;28;20475;-84
2022/01/16 10:43:36;;;;;;;51.50;18.77;;;1.20;99.90;;;;;;4998900;28;20022;-83
2022/01/16 10:46:02;;;;;;;55.07;20.03;;;1.20;99.90;;;;;;4999434;28;20453;-83
2022/01/16 10:48:28;;;;;;;57.60;19.10;;;1.30;99.90;;;;;;4998989;28;20402;-83
2022/01/16 10:50:54;;;;;;;56.00;19.60;;;1.30;99.90;;;;;;5015055;28;20026;-82
2022/01/16 10:53:28;;;;;;;49.83;18.47;;;1.40;99.90;;;;;;4998944;28;20112;-83
2022/01/16 10:55:58;;;;;;;47.57;18.43;;;1.40;99.90;;;;;;4999327;28;20477;-83
2022/01/16 10:58:39;;;;;;;47.97;18.37;;;1.40;99.90;;;;;;5016629;28;20030;-84
2022/01/16 11:01:18;;;;;;;53.57;18.63;;;1.40;99.90;;;;;;4999517;28;20029;-82
2022/01/16 11:03:49;;;;;;;53.13;18.10;;;1.40;99.90;;;;;;5016709;28;20032;-83
2022/01/16 11:06:17;;;;;;;51.17;19.03;;;1.40;99.90;;;;;;4999166;28;20108;-83
2022/01/16 11:08:53;;;;;;;50.77;18.60;;;1.40;99.90;;;;;;5016493;28;20022;-83
2022/01/16 11:11:22;;;;;;;51.90;18.93;;;1.50;99.90;;;;;;5015861;28;20137;-84
2022/01/16 11:13:50;;;;;;;53.13;19.37;;;1.50;99.90;;;;;;4999014;28;20495;-83
2022/01/16 11:16:16;;;;;;;48.83;18.27;;;1.50;99.90;;;;;;4998881;28;20033;-83
2022/01/16 11:18:48;;;;;;;59.50;19.50;;;1.60;99.90;;;;;;4998564;28;20033;-83
2022/01/16 11:21:18;;;;;;;;;;;1.60;99.90;;;;;;4999558;28;20018;-83
2022/01/16 11:26:22;;;;;;;52.27;18.67;;;1.60;99.90;;;;;;5015728;28;20030;-83
2022/01/16 11:28:51;;;;;;;48.70;19.13;;;1.70;99.90;;;;;;5015957;28;20034;-83
2022/01/16 11:31:16;;;;;;;44.50;18.17;;;1.70;99.90;;;;;;4998780;28;20088;-83
2022/01/16 11:33:43;;;;;;;53.23;17.87;;;1.80;99.90;;;;;;4998138;28;20026;-82
2022/01/16 11:36:13;;;;;;;51.27;18.30;;;1.80;99.90;;;;;;4998371;28;20030;-82
2022/01/16 11:38:50;;;;;;;48.70;18.20;;;1.80;99.90;;;;;;5015280;28;20106;-82
2022/01/16 11:41:25;;;;;;;45.67;17.70;;;1.90;99.90;;;;;;4998514;28;20076;-82
2022/01/16 11:43:52;;;;;;;49.90;18.13;;;1.90;99.90;;;;;;5015828;28;20121;-81
2022/01/16 11:46:26;;;;;;;54.53;18.83;;;2.00;99.90;;;;;;4998178;28;20069;-83
2022/01/16 11:48:58;;;;;;;42.93;16.80;;;2.00;99.90;;;;;;4998990;28;20028;-82
2022/01/16 11:51:33;;;;;;;40.95;15.38;;;2.10;99.90;;;;;;4998133;28;20084;-83
2022/01/16 11:54:04;;;;;;;40.97;17.10;;;2.10;99.90;;;;;;4997909;28;20034;-83
2022/01/16 11:56:42;;;;;;;41.60;15.57;;;2.10;99.90;;;;;;4997540;28;20037;-82
2022/01/16 11:59:15;;;;;;;43.13;15.90;;;2.20;99.90;;;;;;4997798;28;20054;-81
2022/01/16 12:01:55;;;;;;;43.90;16.37;;;2.20;99.90;;;;;;4996909;28;20034;-82
2022/01/16 12:04:29;;;;;;;45.97;16.77;;;2.20;99.90;;;;;;5014685;28;20088;-86
2022/01/16 12:07:12;;;;;;;45.10;16.20;;;2.20;99.90;;;;;;4997678;28;20041;-82
2022/01/16 12:09:52;;;;;;;;;;;2.30;99.90;;;;;;4997943;28;20033;-83
2022/01/16 12:12:18;;;;;;;43.87;15.80;;;2.30;99.90;;;;;;4997749;28;19921;-82
2022/01/16 12:15:02;;;;;;;46.57;16.03;;;2.30;99.90;;;;;;4997449;28;20059;-82
2022/01/16 12:17:42;;;;;;;46.60;16.13;;;2.40;99.90;;;;;;4997215;28;20042;-83
2022/01/16 12:20:14;;;;;;;49.77;16.70;;;2.40;99.90;;;;;;4997650;28;20116;-83
2022/01/16 12:22:52;;;;;;;45.53;16.80;;;2.40;99.90;;;;;;4997039;28;20022;-82
2022/01/16 12:25:30;;;;;;;41.93;16.27;;;2.50;99.90;;;;;;5152216;27;20452;-83
2022/01/16 12:28:01;;;;;;;50.28;18.02;;;2.50;99.90;;;;;;5114143;28;20031;-83
2022/01/16 12:30:48;;;;;;;48.03;17.97;;;2.50;99.90;;;;;;5113659;28;20464;-83
2022/01/16 12:33:14;;;;;;;47.87;17.03;;;2.40;99.90;;;;;;5114116;28;20027;-82
2022/01/16 12:35:50;;;;;;;46.20;16.23;;;2.40;99.90;;;;;;5113539;28;20357;-82
2022/01/16 12:38:17;;;;;;;52.87;18.77;;;2.40;99.90;;;;;;5114137;28;20089;-82
2022/01/16 12:40:46;;;;;;;47.70;17.90;;;2.40;99.90;;;;;;5131501;28;20031;-82
2022/01/16 12:43:21;;;;;;;53.17;17.33;;;2.40;99.90;;;;;;5113693;28;20023;-81
2022/01/16 12:45:46;;;;;;;46.97;18.33;;;2.40;99.90;;;;;;5113401;28;20029;-82
2022/01/16 12:48:13;;;;;;;50.63;18.07;;;2.50;99.90;;;;;;5131897;28;20035;-82
2022/01/16 12:50:40;;;;;;;52.63;17.97;;;2.50;99.90;;;;;;5113136;28;20024;-82
2022/01/16 12:53:05;;;;;;;43.23;16.20;;;2.60;99.90;;;;;;5113477;28;20026;-82
2022/01/16 12:55:33;;;;;;;48.07;19.20;;;2.60;99.90;;;;;;5113146;28;20032;-83
2022/01/16 12:58:19;;;;;;;54.90;17.77;;;2.60;99.90;;;;;;5113685;28;20028;-83
2022/01/16 13:00:57;;;;;;;51.07;18.00;;;2.60;99.90;;;;;;5113141;28;20030;-82
2022/01/16 13:03:28;;;;;;;52.67;19.30;;;2.60;99.90;;;;;;5113125;28;20034;-82
2022/01/16 13:06:14;;;;;;;47.13;16.20;;;2.60;99.90;;;;;;5113083;28;20036;-82
2022/01/16 13:08:58;;;;;;;41.97;16.93;;;2.60;99.90;;;;;;5130241;28;20035;-81
2022/01/16 13:11:33;;;;;;;50.10;17.67;;;2.60;99.90;;;;;;5113331;28;20460;-81
2022/01/16 13:13:59;;;;;;;56.60;17.77;;;2.50;99.90;;;;;;5131477;28;20028;-81
2022/01/16 13:16:26;;;;;;;45.87;16.80;;;2.50;99.90;;;;;;5112951;28;20026;-91
2022/01/16 13:19:14;;;;;;;50.70;18.00;;;2.50;99.90;;;;;;5131263;28;20023;-82